Time;durP1;ratioP1;P1;durP2;ratioP2;P2;SDS_P1;SDS_P2;PMS_P1;PMS_P2;Temp;Humidity;BMP_temperature;BMP_pressure;BME280_temperature;BME280_humidity;BME280_pressure;Samples;Min_cycle;Max_cycle;Signal;HPM_P1;HPM_P2
2023/09/09 00:01:29;;;;;;;1999.90;999.90;;;17.50;99.90;;;;;;5055740;28;20072;-70
2023/09/09 00:03:56;;;;;;;1999.90;999.90;;;17.50;99.90;;;;;;5060193;28;20073;-71
2023/09/09 00:06:21;;;;;;;1999.90;999.90;;;17.40;99.90;;;;;;5067205;28;20072;-70
2023/09/09 00:08:47;;;;;;;1999.90;999.90;;;17.40;99.90;;;;;;5050719;28;20577;-70
2023/09/09 00:11:13;;;;;;;1999.90;999.90;;;17.40;99.90;;;;;;5052386;28;20493;-70
2023/09/09 00:13:38;;;;;;;1999.90;999.90;;;17.40;99.90;;;;;;5050231;28;20103;-70
2023/09/09 00:16:04;;;;;;;1999.90;999.90;;;17.40;99.90;;;;;;5055893;28;20428;-71
2023/09/09 00:18:30;;;;;;;1999.90;999.90;;;17.40;99.90;;;;;;5061565;28;20059;-71
2023/09/09 00:20:56;;;;;;;1999.90;999.90;;;17.40;99.90;;;;;;5033855;28;20033;-70
2023/09/09 00:23:21;;;;;;;1999.90;999.90;;;17.30;99.90;;;;;;5046532;28;20037;-70
2023/09/09 00:25:48;;;;;;;1999.90;999.90;;;17.30;99.90;;;;;;5047194;28;20151;-70
2023/09/09 00:28:14;;;;;;;1999.90;999.90;;;17.30;99.90;;;;;;5050983;28;20052;-70
2023/09/09 00:30:41;;;;;;;1999.90;999.90;;;17.30;99.90;;;;;;5048917;28;20094;-70
2023/09/09 00:33:09;;;;;;;1999.90;999.90;;;17.30;99.90;;;;;;5049261;28;20083;-70
2023/09/09 00:35:38;;;;;;;1999.90;999.90;;;17.30;99.90;;;;;;5046513;28;20032;-70
2023/09/09 00:38:05;;;;;;;1999.90;999.90;;;17.20;99.90;;;;;;5050243;28;20511;-70
2023/09/09 00:40:31;;;;;;;1999.90;999.90;;;17.20;99.90;;;;;;5047243;28;20056;-71
2023/09/09 00:42:56;;;;;;;1999.90;999.90;;;17.20;99.90;;;;;;5064669;28;20046;-70
2023/09/09 00:45:23;;;;;;;1999.90;999.90;;;17.10;99.90;;;;;;5045600;28;20106;-70
2023/09/09 00:47:49;;;;;;;1999.90;999.90;;;17.20;99.90;;;;;;5051688;28;20678;-71
2023/09/09 00:50:14;;;;;;;1999.90;999.90;;;17.10;99.90;;;;;;5047999;28;20098;-70
2023/09/09 00:52:42;;;;;;;1999.90;999.90;;;17.10;99.90;;;;;;5051285;28;20036;-70
2023/09/09 00:55:09;;;;;;;1999.90;999.90;;;17.10;99.90;;;;;;5048071;28;20393;-71
2023/09/09 00:57:35;;;;;;;1999.90;999.90;;;17.10;99.90;;;;;;5046732;28;20762;-71
2023/09/09 01:00:04;;;;;;;1999.90;999.90;;;17.10;99.90;;;;;;5042924;28;20045;-71
2023/09/09 01:02:31;;;;;;;1999.90;999.90;;;17.00;99.90;;;;;;5051438;28;20052;-70
2023/09/09 01:04:59;;;;;;;1999.90;999.90;;;17.00;99.90;;;;;;5041956;28;20083;-70
2023/09/09 01:07:26;;;;;;;1999.90;999.90;;;17.00;99.90;;;;;;5047677;28;20049;-71
2023/09/09 01:09:52;;;;;;;1999.90;999.90;;;16.90;99.90;;;;;;5043262;28;20112;-70
2023/09/09 01:12:18;;;;;;;1999.90;999.90;;;16.90;99.90;;;;;;5050107;28;20044;-71
2023/09/09 01:14:44;;;;;;;1999.90;999.90;;;16.90;99.90;;;;;;5058100;28;20125;-71
2023/09/09 01:17:10;;;;;;;1999.90;999.90;;;16.90;99.90;;;;;;5055356;28;20269;-70
2023/09/09 01:19:37;;;;;;;1999.90;999.90;;;16.90;99.90;;;;;;5052060;28;20072;-70
2023/09/09 01:22:10;;;;;;;1999.90;999.90;;;16.90;99.90;;;;;;5029696;28;20041;-70
2023/09/09 01:24:38;;;;;;;1999.90;999.90;;;16.90;99.90;;;;;;5049025;28;20049;-71
2023/09/09 01:27:04;;;;;;;1999.90;999.90;;;16.80;99.90;;;;;;5046359;28;20044;-70
2023/09/09 01:29:30;;;;;;;1999.90;999.90;;;16.80;99.90;;;;;;5045722;28;20090;-70
2023/09/09 01:31:55;;;;;;;1999.90;999.90;;;16.80;99.90;;;;;;5053704;28;20823;-70
2023/09/09 01:34:21;;;;;;;1999.90;999.90;;;16.90;99.90;;;;;;5048897;28;20040;-70
2023/09/09 01:36:47;;;;;;;1999.90;999.90;;;16.80;99.90;;;;;;5031268;28;20041;-70
2023/09/09 01:39:13;;;;;;;1999.90;999.90;;;16.80;99.90;;;;;;5049691;28;20370;-70
2023/09/09 01:41:38;;;;;;;1999.90;999.90;;;16.80;99.90;;;;;;5031863;28;20094;-70
2023/09/09 01:44:04;;;;;;;1999.90;999.90;;;16.80;99.90;;;;;;5049421;28;20731;-70
2023/09/09 01:46:30;;;;;;;1999.90;999.90;;;16.80;99.90;;;;;;5044264;28;20126;-70
2023/09/09 01:48:57;;;;;;;1999.90;999.90;;;16.80;99.90;;;;;;5041945;28;20494;-71
2023/09/09 01:51:23;;;;;;;1999.90;999.90;;;16.80;99.90;;;;;;5049049;28;20090;-70
2023/09/09 01:53:48;;;;;;;1999.90;999.90;;;16.80;99.90;;;;;;5049369;28;20041;-70
2023/09/09 01:56:14;;;;;;;1999.90;999.90;;;16.70;99.90;;;;;;5046973;28;20036;-70
2023/09/09 01:58:39;;;;;;;1999.90;999.90;;;16.70;99.90;;;;;;5055687;28;20039;-70
2023/09/09 02:01:05;;;;;;;1999.90;999.90;;;16.70;99.90;;;;;;5043631;28;20033;-70
2023/09/09 02:03:31;;;;;;;1999.90;999.90;;;16.70;99.90;;;;;;5044523;28;20140;-70
2023/09/09 02:05:56;;;;;;;1999.90;999.90;;;16.70;99.90;;;;;;5041543;28;20057;-70
2023/09/09 02:08:22;;;;;;;1999.90;999.90;;;16.60;99.90;;;;;;5047882;28;20043;-71
2023/09/09 02:10:50;;;;;;;1999.90;999.90;;;16.60;99.90;;;;;;5046601;28;20068;-70
2023/09/09 02:13:15;;;;;;;1999.90;999.90;;;16.60;99.90;;;;;;5054094;28;20037;-70
2023/09/09 02:15:41;;;;;;;1999.90;999.90;;;16.60;99.90;;;;;;5053410;28;20044;-70
2023/09/09 02:18:07;;;;;;;1999.90;999.90;;;16.60;99.90;;;;;;5047504;28;20834;-70
2023/09/09 02:20:33;;;;;;;1999.90;999.90;;;16.60;99.90;;;;;;5055383;28;20048;-70
2023/09/09 02:22:58;;;;;;;1999.90;999.90;;;16.60;99.90;;;;;;5056942;28;20037;-70
2023/09/09 02:25:24;;;;;;;1999.90;999.90;;;16.60;99.90;;;;;;5059013;28;20074;-70
2023/09/09 02:27:50;;;;;;;1999.90;999.90;;;16.50;99.90;;;;;;5043904;28;20488;-71
2023/09/09 02:30:15;;;;;;;1999.90;999.90;;;16.50;99.90;;;;;;5028050;28;20043;-71
2023/09/09 02:32:44;;;;;;;1999.90;999.90;;;16.50;99.90;;;;;;5049037;28;20063;-71
2023/09/09 02:35:09;;;;;;;1999.90;999.90;;;16.50;99.90;;;;;;5058051;28;20108;-70
2023/09/09 02:37:35;;;;;;;1999.90;999.90;;;16.40;99.90;;;;;;5049832;28;20152;-70
2023/09/09 02:40:01;;;;;;;1999.90;999.90;;;16.40;99.90;;;;;;5037050;28;20568;-71
2023/09/09 02:42:26;;;;;;;1999.90;999.90;;;16.40;99.90;;;;;;5052093;28;20124;-70
2023/09/09 02:44:52;;;;;;;1999.90;999.90;;;16.40;99.90;;;;;;5056924;28;20043;-71
2023/09/09 02:47:18;;;;;;;1999.90;999.90;;;16.30;99.90;;;;;;5051896;28;20067;-70
2023/09/09 02:49:44;;;;;;;1999.90;999.90;;;16.30;99.90;;;;;;5051348;28;20040;-71
2023/09/09 02:52:11;;;;;;;1999.90;999.90;;;16.30;99.90;;;;;;5069881;28;20072;-71
2023/09/09 02:54:37;;;;;;;1999.90;999.90;;;16.30;99.90;;;;;;5057402;28;20059;-71
2023/09/09 02:57:03;;;;;;;1999.90;999.90;;;16.30;99.90;;;;;;5056928;28;20094;-70
2023/09/09 02:59:32;;;;;;;1999.90;999.90;;;16.30;99.90;;;;;;5045026;28;20053;-71
2023/09/09 03:01:59;;;;;;;1999.90;999.90;;;16.30;99.90;;;;;;5063122;28;20076;-71
2023/09/09 03:04:24;;;;;;;1999.90;999.90;;;16.30;99.90;;;;;;5052995;28;20037;-70
2023/09/09 03:06:50;;;;;;;1999.90;999.90;;;16.30;99.90;;;;;;5033442;28;20523;-70
2023/09/09 03:09:16;;;;;;;1999.90;999.90;;;16.30;99.90;;;;;;5056140;28;20093;-71
2023/09/09 03:11:42;;;;;;;1999.90;999.90;;;16.20;99.90;;;;;;5057006;28;20056;-70
2023/09/09 03:14:08;;;;;;;1999.90;999.90;;;16.20;99.90;;;;;;5065032;28;20088;-70
2023/09/09 03:16:37;;;;;;;1999.90;999.90;;;16.30;99.90;;;;;;5050349;28;20052;-70
2023/09/09 03:19:03;;;;;;;1999.90;999.90;;;16.30;99.90;;;;;;5057908;28;20048;-70
2023/09/09 03:21:29;;;;;;;1999.90;999.90;;;16.30;99.90;;;;;;5052185;28;20045;-70
2023/09/09 03:23:55;;;;;;;1999.90;999.90;;;16.30;99.90;;;;;;5069920;28;20482;-71
2023/09/09 03:26:22;;;;;;;1999.90;999.90;;;16.40;99.90;;;;;;5036833;28;20040;-70
2023/09/09 03:28:51;;;;;;;1999.90;999.90;;;16.40;99.90;;;;;;5054451;28;20434;-70
2023/09/09 03:31:17;;;;;;;1999.90;999.90;;;16.40;99.90;;;;;;5055881;28;20171;-70
2023/09/09 03:33:43;;;;;;;1999.90;999.90;;;16.40;99.90;;;;;;5047369;28;20063;-71
2023/09/09 03:36:09;;;;;;;1999.90;999.90;;;16.40;99.90;;;;;;5048496;28;20048;-70
2023/09/09 03:38:36;;;;;;;1999.90;999.90;;;16.40;99.90;;;;;;5036866;28;20097;-70
2023/09/09 03:41:05;;;;;;;1999.90;999.90;;;16.40;99.90;;;;;;5047808;28;20107;-70
2023/09/09 03:43:31;;;;;;;1999.90;999.90;;;16.40;99.90;;;;;;5055824;28;20132;-70
2023/09/09 03:45:57;;;;;;;1999.90;999.90;;;16.40;99.90;;;;;;5050098;28;20068;-70
2023/09/09 03:48:23;;;;;;;1999.90;999.90;;;16.40;99.90;;;;;;5055521;28;20067;-70
2023/09/09 03:50:49;;;;;;;1999.90;999.90;;;16.40;99.90;;;;;;5065544;28;20045;-70
2023/09/09 03:53:15;;;;;;;1999.90;999.90;;;16.40;99.90;;;;;;5058607;28;20066;-70
2023/09/09 03:55:41;;;;;;;1999.90;999.90;;;16.40;99.90;;;;;;5049749;28;20394;-70
2023/09/09 03:58:06;;;;;;;1999.90;999.90;;;16.40;99.90;;;;;;5034268;28;20127;-70
2023/09/09 04:00:33;;;;;;;1999.90;999.90;;;16.40;99.90;;;;;;5047682;28;20099;-70
2023/09/09 04:02:59;;;;;;;1999.90;999.90;;;16.40;99.90;;;;;;5062873;28;20069;-70
2023/09/09 04:05:24;;;;;;;1999.90;999.90;;;16.40;99.90;;;;;;5046544;28;20136;-70
2023/09/09 04:07:50;;;;;;;1999.90;999.90;;;16.40;99.90;;;;;;5048187;28;20501;-70
2023/09/09 04:10:16;;;;;;;1999.90;999.90;;;16.40;99.90;;;;;;5032283;28;20049;-70
2023/09/09 04:12:42;;;;;;;1999.90;999.90;;;16.40;99.90;;;;;;5050613;28;20044;-70
2023/09/09 04:15:08;;;;;;;1999.90;999.90;;;16.30;99.90;;;;;;5048623;28;20041;-70
2023/09/09 04:17:34;;;;;;;1999.90;999.90;;;16.30;99.90;;;;;;5063735;28;20041;-70
2023/09/09 04:20:00;;;;;;;1999.90;999.90;;;16.30;99.90;;;;;;5048121;28;20051;-70
2023/09/09 04:22:26;;;;;;;1999.90;999.90;;;16.30;99.90;;;;;;5054177;28;20451;-70
2023/09/09 04:24:55;;;;;;;1999.90;999.90;;;16.30;99.90;;;;;;5051565;28;20593;-70
2023/09/09 04:27:21;;;;;;;1999.90;999.90;;;16.20;99.90;;;;;;5054842;28;20553;-70
2023/09/09 04:29:47;;;;;;;1999.90;999.90;;;16.20;99.90;;;;;;5052756;28;20053;-70
2023/09/09 04:32:13;;;;;;;1999.90;999.90;;;16.20;99.90;;;;;;5047563;28;20558;-70
2023/09/09 04:34:39;;;;;;;1999.90;999.90;;;16.20;99.90;;;;;;5045710;28;20033;-70
2023/09/09 04:37:04;;;;;;;1999.90;999.90;;;16.20;99.90;;;;;;5062835;28;20032;-70
2023/09/09 04:39:30;;;;;;;1999.90;999.90;;;16.10;99.90;;;;;;5055709;28;20063;-70
2023/09/09 04:41:56;;;;;;;1999.90;999.90;;;16.10;99.90;;;;;;5053766;28;20041;-70
2023/09/09 04:44:21;;;;;;;1999.90;999.90;;;16.10;99.90;;;;;;5045843;28;20141;-70
2023/09/09 04:46:47;;;;;;;1999.90;999.90;;;16.10;99.90;;;;;;5038840;28;20051;-71
2023/09/09 04:49:12;;;;;;;1999.90;999.90;;;16.10;99.90;;;;;;5030169;28;20071;-71
2023/09/09 04:51:38;;;;;;;1999.90;999.90;;;16.00;99.90;;;;;;5047238;28;20041;-71
2023/09/09 04:54:04;;;;;;;1999.90;999.90;;;16.00;99.90;;;;;;5047627;28;20047;-70
2023/09/09 04:56:30;;;;;;;1999.90;999.90;;;15.90;99.90;;;;;;5054984;28;20048;-70
2023/09/09 04:58:55;;;;;;;1999.90;999.90;;;15.90;99.90;;;;;;5050619;28;20568;-69
2023/09/09 05:01:21;;;;;;;1999.90;999.90;;;15.90;99.90;;;;;;5050631;28;20106;-70
2023/09/09 05:03:47;;;;;;;1999.90;999.90;;;15.90;99.90;;;;;;5051277;28;20041;-70
2023/09/09 05:06:12;;;;;;;1999.90;999.90;;;15.90;99.90;;;;;;5062703;28;20057;-69
2023/09/09 05:08:38;;;;;;;1999.90;999.90;;;15.80;99.90;;;;;;5037811;28;20135;-69
2023/09/09 05:11:04;;;;;;;1999.90;999.90;;;15.80;99.90;;;;;;5049167;28;20127;-69
2023/09/09 05:13:29;;;;;;;1999.90;999.90;;;15.80;99.90;;;;;;5057893;28;20116;-69
2023/09/09 05:15:55;;;;;;;1999.90;999.90;;;15.90;99.90;;;;;;5045645;28;20045;-69
2023/09/09 05:18:20;;;;;;;1999.90;999.90;;;15.90;99.90;;;;;;5030099;28;20114;-69
2023/09/09 05:20:46;;;;;;;1999.90;999.90;;;15.90;99.90;;;;;;5044415;28;20040;-69
2023/09/09 05:23:11;;;;;;;1999.90;999.90;;;15.90;99.90;;;;;;5045629;28;20123;-70
2023/09/09 05:25:37;;;;;;;1999.90;999.90;;;16.00;99.90;;;;;;5054855;28;20056;-69
2023/09/09 05:28:03;;;;;;;1999.90;999.90;;;15.90;99.90;;;;;;5050830;28;20063;-70
2023/09/09 05:30:28;;;;;;;1999.90;999.90;;;16.00;99.90;;;;;;5044328;28;20053;-69
2023/09/09 05:32:54;;;;;;;1999.90;999.90;;;16.00;99.90;;;;;;5053098;28;20789;-69
2023/09/09 05:35:20;;;;;;;1999.90;999.90;;;16.10;99.90;;;;;;5048800;28;20120;-69
2023/09/09 05:37:46;;;;;;;1999.90;999.90;;;16.10;99.90;;;;;;5041134;28;20048;-69
2023/09/09 05:40:11;;;;;;;1999.90;999.90;;;16.10;99.90;;;;;;5053769;28;20039;-70
2023/09/09 05:42:38;;;;;;;1999.90;999.90;;;16.10;99.90;;;;;;5061586;28;20139;-70
2023/09/09 05:45:04;;;;;;;1999.90;999.90;;;16.00;99.90;;;;;;5049861;28;20162;-69
2023/09/09 05:47:30;;;;;;;1999.90;999.90;;;16.00;99.90;;;;;;5052651;28;20051;-69
2023/09/09 05:49:55;;;;;;;1999.90;999.90;;;16.00;99.90;;;;;;5055499;28;20405;-71
2023/09/09 05:52:21;;;;;;;1999.90;999.90;;;16.00;99.90;;;;;;5047713;28;20138;-69
2023/09/09 05:54:47;;;;;;;1999.90;999.90;;;16.00;99.90;;;;;;5057154;28;20049;-69
2023/09/09 05:57:12;;;;;;;1999.90;999.90;;;16.10;99.90;;;;;;5070809;28;20120;-69
2023/09/09 05:59:38;;;;;;;1999.90;999.90;;;16.10;99.90;;;;;;5058634;28;20033;-69
2023/09/09 06:02:05;;;;;;;1999.90;999.90;;;16.10;99.90;;;;;;5053238;28;20099;-69
2023/09/09 06:04:31;;;;;;;1999.90;999.90;;;16.20;99.90;;;;;;5056030;28;20051;-69
2023/09/09 06:06:57;;;;;;;1999.90;999.90;;;16.20;99.90;;;;;;5049999;28;20128;-69
2023/09/09 06:09:22;;;;;;;1999.90;999.90;;;16.30;99.90;;;;;;5049170;28;20040;-70
2023/09/09 06:11:49;;;;;;;1999.90;999.90;;;16.30;99.90;;;;;;5030770;28;20045;-70
2023/09/09 06:14:15;;;;;;;1999.90;999.90;;;16.40;99.90;;;;;;5048196;28;20123;-70
2023/09/09 06:16:40;;;;;;;1999.90;999.90;;;16.50;99.90;;;;;;5051672;28;20156;-70
2023/09/09 06:19:06;;;;;;;1999.90;999.90;;;16.50;99.90;;;;;;5057203;28;20511;-70
2023/09/09 06:21:32;;;;;;;1999.90;999.90;;;16.60;99.90;;;;;;5052469;28;20056;-70
2023/09/09 06:23:57;;;;;;;1999.90;999.90;;;16.70;99.90;;;;;;5036057;28;20139;-70
2023/09/09 06:26:23;;;;;;;1999.90;999.90;;;16.80;99.90;;;;;;5042917;28;20124;-70
2023/09/09 06:28:48;;;;;;;1999.90;999.90;;;16.90;99.90;;;;;;5052138;28;20059;-71
2023/09/09 06:31:14;;;;;;;1999.90;999.90;;;17.00;99.90;;;;;;5035585;28;20094;-70
2023/09/09 06:33:40;;;;;;;1999.90;999.90;;;17.10;99.90;;;;;;5054736;28;20504;-70
2023/09/09 06:36:05;;;;;;;1999.90;999.90;;;17.20;99.90;;;;;;5048127;28;20041;-70
2023/09/09 06:38:31;;;;;;;1999.90;999.90;;;17.30;99.90;;;;;;5052760;28;20047;-70
2023/09/09 06:40:57;;;;;;;1999.90;999.90;;;17.40;99.90;;;;;;5048411;28;20505;-70
2023/09/09 06:43:23;;;;;;;1999.90;999.90;;;17.50;99.90;;;;;;5051545;28;20052;-71
2023/09/09 06:45:49;;;;;;;1999.90;999.90;;;17.60;99.90;;;;;;5056596;28;20052;-71
2023/09/09 06:48:17;;;;;;;1999.90;999.90;;;17.70;99.90;;;;;;5052853;28;20045;-71
2023/09/09 06:50:47;;;;;;;1999.90;999.90;;;17.90;99.90;;;;;;5044506;28;20037;-71
2023/09/09 06:53:13;;;;;;;1999.90;999.90;;;18.00;99.90;;;;;;5051825;28;20114;-70
2023/09/09 06:55:41;;;;;;;1999.90;999.90;;;18.10;99.90;;;;;;5031862;28;20041;-71
2023/09/09 06:58:07;;;;;;;1999.90;999.90;;;18.20;99.90;;;;;;5041862;28;20048;-71
2023/09/09 07:00:32;;;;;;;1999.90;999.90;;;18.30;99.90;;;;;;5051709;28;20101;-71
2023/09/09 07:02:58;;;;;;;1999.90;999.90;;;18.40;99.90;;;;;;5047465;28;20074;-71
2023/09/09 07:05:24;;;;;;;1999.90;999.90;;;18.50;99.90;;;;;;5050507;28;20041;-70
2023/09/09 07:07:50;;;;;;;1999.90;999.90;;;18.60;99.90;;;;;;5048720;28;20063;-70
2023/09/09 07:10:15;;;;;;;1999.90;999.90;;;18.70;99.90;;;;;;5046734;28;20042;-71
2023/09/09 07:12:42;;;;;;;1999.90;999.90;;;18.90;99.90;;;;;;5052297;28;20392;-70
2023/09/09 07:15:08;;;;;;;1999.90;999.90;;;19.00;99.90;;;;;;5049173;28;20032;-70
2023/09/09 07:17:34;;;;;;;1999.90;999.90;;;19.20;99.90;;;;;;5057104;28;20049;-70
2023/09/09 07:20:00;;;;;;;1999.90;999.90;;;19.40;99.90;;;;;;5046411;28;20520;-70
2023/09/09 07:22:26;;;;;;;1999.90;999.90;;;20.00;99.90;;;;;;5053858;28;20064;-71
2023/09/09 07:24:51;;;;;;;1999.90;999.90;;;20.30;99.90;;;;;;5047030;28;20068;-70
2023/09/09 07:27:17;;;;;;;1999.90;999.90;;;20.30;99.90;;;;;;5051648;28;20693;-70
2023/09/09 07:29:43;;;;;;;1999.90;999.90;;;20.30;99.90;;;;;;5045776;28;20048;-70
2023/09/09 07:32:08;;;;;;;1999.90;999.90;;;20.20;99.90;;;;;;5049556;28;20048;-71
2023/09/09 07:34:34;;;;;;;1999.90;999.90;;;20.20;99.90;;;;;;5030953;28;20144;-71
2023/09/09 07:37:00;;;;;;;1999.90;999.90;;;20.20;99.90;;;;;;5050963;28;20053;-71
2023/09/09 07:39:27;;;;;;;1999.90;999.90;;;20.20;99.90;;;;;;5053654;28;20045;-70
2023/09/09 07:41:53;;;;;;;1999.90;999.90;;;20.30;99.90;;;;;;5049335;28;20037;-71
2023/09/09 07:44:19;;;;;;;1999.90;999.90;;;20.30;99.90;;;;;;5064626;28;20095;-71
2023/09/09 07:46:45;;;;;;;1999.90;999.90;;;20.50;99.90;;;;;;5047497;28;20114;-71
2023/09/09 07:49:10;;;;;;;1999.90;999.90;;;20.80;99.90;;;;;;5048619;28;20032;-71
2023/09/09 07:51:36;;;;;;;1999.90;999.90;;;20.90;99.90;;;;;;5043439;28;20124;-70
2023/09/09 07:54:02;;;;;;;1999.90;999.90;;;20.90;99.90;;;;;;5032431;28;20052;-70
2023/09/09 07:56:27;;;;;;;1999.90;999.90;;;21.00;99.90;;;;;;5045624;28;20138;-70
2023/09/09 07:58:53;;;;;;;1999.90;999.90;;;21.10;99.90;;;;;;5030407;28;20680;-70
2023/09/09 08:01:19;;;;;;;1999.90;999.90;;;21.10;99.90;;;;;;5044790;28;20033;-70
2023/09/09 08:03:45;;;;;;;1999.90;999.90;;;21.10;99.90;;;;;;5050400;28;20158;-70
2023/09/09 08:06:10;;;;;;;1999.90;999.90;;;21.20;99.90;;;;;;5065268;28;20095;-71
2023/09/09 08:08:36;;;;;;;1999.90;999.90;;;21.30;99.90;;;;;;5032489;28;20057;-70
2023/09/09 08:11:05;;;;;;;1999.90;999.90;;;21.40;99.90;;;;;;5046942;28;20053;-71
2023/09/09 08:13:31;;;;;;;1999.90;999.90;;;21.50;99.90;;;;;;5047206;28;20491;-70
2023/09/09 08:15:58;;;;;;;1999.90;999.90;;;21.60;99.90;;;;;;5063069;28;20175;-70
2023/09/09 08:18:24;;;;;;;1999.90;999.90;;;21.70;99.90;;;;;;5064077;28;20394;-71
2023/09/09 08:20:50;;;;;;;1999.90;999.90;;;21.80;99.90;;;;;;5050563;28;20041;-70
2023/09/09 08:23:16;;;;;;;1999.90;999.90;;;21.90;99.90;;;;;;5051511;28;20033;-71
2023/09/09 08:25:42;;;;;;;1999.90;999.90;;;22.00;99.90;;;;;;5050680;28;20040;-71
2023/09/09 08:28:08;;;;;;;1999.90;999.90;;;22.20;99.90;;;;;;5055368;28;20052;-70
2023/09/09 08:30:33;;;;;;;1999.90;999.90;;;22.30;99.90;;;;;;5046705;28;20052;-71
2023/09/09 08:32:59;;;;;;;1999.90;999.90;;;22.50;99.90;;;;;;5046544;28;20076;-71
2023/09/09 08:35:25;;;;;;;731.65;686.60;;;22.80;99.90;;;;;;5035939;28;20037;-71
2023/09/09 08:37:51;;;;;;;1999.90;999.90;;;23.00;99.90;;;;;;5058097;28;20037;-71
2023/09/09 08:40:16;;;;;;;674.67;633.55;;;23.40;99.90;;;;;;5046240;28;20049;-71
2023/09/09 08:43:11;;;;;;;673.67;633.20;;;23.60;99.90;;;;;;5049304;28;20604;-71
2023/09/09 08:45:52;;;;;;;651.10;613.10;;;23.60;99.90;;;;;;5054930;28;20393;-70
2023/09/09 08:48:20;;;;;;;635.65;597.28;;;23.70;99.90;;;;;;5033641;28;20440;-71
2023/09/09 08:50:48;;;;;;;631.65;594.53;;;23.80;99.90;;;;;;5044314;28;20816;-71
2023/09/09 08:53:17;;;;;;;617.95;581.67;;;23.90;99.90;;;;;;5029066;28;20125;-71
2023/09/09 08:55:43;;;;;;;614.22;578.17;;;24.40;99.90;;;;;;5047451;28;20091;-71
2023/09/09 08:58:09;;;;;;;477.42;450.15;;;25.10;99.90;;;;;;5063684;28;20040;-71
2023/09/09 09:00:37;;;;;;;560.55;528.65;;;25.90;99.90;;;;;;5049080;28;20093;-71
2023/09/09 09:03:04;;;;;;;597.50;561.80;;;26.50;99.90;;;;;;5063254;28;20507;-72
2023/09/09 09:05:31;;;;;;;604.72;568.97;;;27.00;99.90;;;;;;5060964;28;20390;-71
2023/09/09 09:07:57;;;;;;;564.95;532.25;;;27.30;99.90;;;;;;5042730;28;20485;-71
2023/09/09 09:10:23;;;;;;;439.42;415.75;;;27.60;99.90;;;;;;5045986;28;20039;-71
2023/09/09 09:12:49;;;;;;;404.92;383.33;;;27.80;99.90;;;;;;5045446;28;20055;-72
2023/09/09 09:15:15;;;;;;;340.92;323.38;;;27.80;99.90;;;;;;5051810;28;20049;-71
2023/09/09 09:17:42;;;;;;;367.00;347.95;;;27.90;99.90;;;;;;5051808;28;20047;-71
2023/09/09 09:20:28;;;;;;;354.55;335.70;;;27.90;99.90;;;;;;5046860;28;20477;-72
2023/09/09 09:22:59;;;;;;;296.45;281.35;;;28.00;99.90;;;;;;5062158;28;20048;-72
2023/09/09 09:25:26;;;;;;;250.77;238.00;;;28.10;99.90;;;;;;5052850;28;20068;-72
2023/09/09 09:27:55;;;;;;;245.98;233.38;;;28.10;99.90;;;;;;5053522;28;20040;-71
2023/09/09 09:30:25;;;;;;;159.60;150.98;;;28.10;99.90;;;;;;5053502;28;20041;-71
2023/09/09 09:32:54;;;;;;;143.45;135.13;;;28.00;99.90;;;;;;5057806;28;20054;-71
2023/09/09 09:35:26;;;;;;;168.93;159.73;;;28.00;99.90;;;;;;5057356;28;20036;-71
2023/09/09 09:38:00;;;;;;;216.95;205.27;;;28.10;99.90;;;;;;5041606;28;20045;-71
2023/09/09 09:40:27;;;;;;;159.65;150.93;;;28.10;99.90;;;;;;5049886;28;20115;-71
2023/09/09 09:42:53;;;;;;;136.30;128.50;;;28.10;99.90;;;;;;5068899;28;20076;-71
2023/09/09 09:45:24;;;;;;;112.13;105.65;;;28.10;99.90;;;;;;5052231;28;20823;-71
2023/09/09 09:47:50;;;;;;;120.05;113.28;;;28.00;99.90;;;;;;5056966;28;20111;-71
2023/09/09 09:50:34;;;;;;;120.13;113.45;;;28.00;99.90;;;;;;5049437;28;20040;-71
2023/09/09 09:53:01;;;;;;;111.55;105.20;;;28.10;99.90;;;;;;5057249;28;20129;-71
2023/09/09 09:55:28;;;;;;;147.18;138.98;;;28.20;99.90;;;;;;5034160;28;20040;-71
2023/09/09 09:57:56;;;;;;;100.75;94.95;;;28.10;99.90;;;;;;5048503;28;20041;-71
2023/09/09 10:00:23;;;;;;;96.53;90.72;;;28.10;99.90;;;;;;5063196;28;20029;-71
2023/09/09 10:02:54;;;;;;;101.40;95.13;;;28.20;99.90;;;;;;5075884;28;20040;-71
2023/09/09 10:05:22;;;;;;;249.63;236.70;;;28.10;99.90;;;;;;5068144;28;20118;-71
2023/09/09 10:08:19;;;;;;;264.83;251.45;;;28.10;99.90;;;;;;5059693;28;20487;-71
2023/09/09 10:11:05;;;;;;;87.22;81.97;;;28.20;99.90;;;;;;5036634;28;20188;-71
2023/09/09 10:13:53;;;;;;;83.57;78.38;;;28.30;99.90;;;;;;5064226;28;20443;-72
2023/09/09 10:16:21;;;;;;;240.80;227.88;;;28.30;99.90;;;;;;5050942;28;20404;-69
2023/09/09 10:18:49;;;;;;;64.53;60.08;;;28.40;99.90;;;;;;5059562;28;20124;-71
2023/09/09 10:21:17;;;;;;;45.60;42.33;;;28.60;99.90;;;;;;5028441;28;20756;-71
2023/09/09 10:23:45;;;;;;;45.83;42.78;;;28.70;99.90;;;;;;5055422;28;20037;-71
2023/09/09 10:26:11;;;;;;;70.25;66.13;;;28.70;99.90;;;;;;5041228;28;20439;-71
2023/09/09 10:28:38;;;;;;;38.63;36.03;;;28.70;99.90;;;;;;5053079;28;20037;-71
2023/09/09 10:31:05;;;;;;;50.80;47.60;;;28.60;99.90;;;;;;5051773;28;20079;-71
2023/09/09 10:33:31;;;;;;;56.88;53.38;;;28.60;99.90;;;;;;5045220;28;20084;-70
2023/09/09 10:35:58;;;;;;;52.45;49.33;;;28.70;99.90;;;;;;5049621;28;20444;-71
2023/09/09 10:38:26;;;;;;;45.30;42.30;;;28.70;99.90;;;;;;5049349;28;20048;-71
2023/09/09 10:40:52;;;;;;;47.88;44.95;;;28.80;99.90;;;;;;5031961;28;20492;-70
2023/09/09 10:43:18;;;;;;;53.00;49.78;;;28.80;99.90;;;;;;5033133;28;20067;-71
2023/09/09 10:45:44;;;;;;;48.60;45.60;;;28.90;99.90;;;;;;5052806;28;20037;-71
2023/09/09 10:48:10;;;;;;;40.35;37.65;;;28.90;99.90;;;;;;5063948;28;20429;-71
2023/09/09 10:50:47;;;;;;;41.83;39.00;;;28.90;99.90;;;;;;5048682;28;20044;-71
2023/09/09 10:53:22;;;;;;;49.88;46.83;;;28.90;99.90;;;;;;5048189;28;20037;-71
2023/09/09 10:55:51;;;;;;;71.93;67.75;;;28.80;99.90;;;;;;5045184;28;20036;-71
2023/09/09 10:58:18;;;;;;;48.83;45.92;;;28.90;99.90;;;;;;5050393;28;20082;-70
2023/09/09 11:00:46;;;;;;;56.17;52.92;;;28.90;99.90;;;;;;5044083;28;20048;-71
2023/09/09 11:03:15;;;;;;;67.70;63.92;;;29.00;99.90;;;;;;5030600;28;20041;-71
2023/09/09 11:06:02;;;;;;;72.20;68.30;;;29.00;99.90;;;;;;5052026;28;20169;-71
2023/09/09 11:08:33;;;;;;;87.18;82.72;;;29.10;99.90;;;;;;5049021;28;20037;-71
2023/09/09 11:11:13;;;;;;;93.90;89.10;;;29.10;99.90;;;;;;5045640;28;20044;-71
2023/09/09 11:14:00;;;;;;;87.28;82.93;;;29.10;99.90;;;;;;5052755;28;20044;-71
2023/09/09 11:16:40;;;;;;;96.55;91.57;;;29.20;99.90;;;;;;5046504;28;20055;-71
2023/09/09 11:19:14;;;;;;;87.63;82.82;;;29.30;99.90;;;;;;5058903;28;20812;-71
2023/09/09 11:21:53;;;;;;;100.55;95.50;;;29.20;99.90;;;;;;5044810;28;20041;-71
2023/09/09 11:24:20;;;;;;;102.93;97.45;;;29.30;99.90;;;;;;5043592;28;20040;-71
2023/09/09 11:26:50;;;;;;;85.82;81.40;;;29.30;99.90;;;;;;5046234;28;20064;-71
2023/09/09 11:29:18;;;;;;;73.70;69.78;;;29.30;99.90;;;;;;5034387;28;20523;-71
2023/09/09 11:31:44;;;;;;;93.97;89.35;;;29.40;99.90;;;;;;5063759;28;20405;-70
2023/09/09 11:34:10;;;;;;;65.53;61.83;;;29.40;99.90;;;;;;5056470;28;20053;-71
2023/09/09 11:36:35;;;;;;;103.47;98.55;;;29.50;99.90;;;;;;5048185;28;20497;-70
2023/09/09 11:39:03;;;;;;;71.55;67.82;;;29.50;99.90;;;;;;5031249;28;20060;-71
2023/09/09 11:41:32;;;;;;;66.20;62.33;;;29.70;99.90;;;;;;5050598;28;20447;-70
2023/09/09 11:44:05;;;;;;;73.63;69.72;;;29.70;99.90;;;;;;5049901;28;20033;-71
2023/09/09 11:46:43;;;;;;;86.83;82.37;;;29.80;99.90;;;;;;5044038;28;20136;-71
2023/09/09 11:49:10;;;;;;;63.42;59.75;;;30.00;99.90;;;;;;5037163;28;20133;-71
2023/09/09 11:51:36;;;;;;;78.18;74.35;;;30.00;99.90;;;;;;5051286;28;20041;-71
2023/09/09 11:54:04;;;;;;;44.58;41.75;;;30.10;99.90;;;;;;5047964;28;20045;-71
2023/09/09 11:56:31;;;;;;;72.88;68.95;;;30.20;99.10;;;;;;5047266;28;20037;-71
2023/09/09 11:58:57;;;;;;;61.22;57.85;;;30.20;98.90;;;;;;5034425;28;20037;-71
2023/09/09 12:01:23;;;;;;;46.65;43.70;;;30.10;99.30;;;;;;5068319;28;20039;-70
2023/09/09 12:03:49;;;;;;;52.00;48.58;;;30.00;99.90;;;;;;5048058;28;20049;-71